createdAt,value
2019-02-18T00:00:45.749Z,78.07
2019-02-18T00:03:14.225Z,77.96
2019-02-18T00:05:42.886Z,77.58
2019-02-18T00:08:11.350Z,78.81
2019-02-18T00:10:39.937Z,77.65
2019-02-18T00:13:08.390Z,77.88
2019-02-18T00:15:36.877Z,77.36
2019-02-18T00:18:05.417Z,77.76
2019-02-18T00:20:33.888Z,78.19
2019-02-18T00:23:02.296Z,77.79
2019-02-18T00:25:30.681Z,78.15
2019-02-18T00:27:59.091Z,78.45
2019-02-18T00:30:27.513Z,79.72
2019-02-18T00:32:55.894Z,79.02
2019-02-18T00:35:24.319Z,78.04
2019-02-18T00:37:52.748Z,78.55
2019-02-18T00:40:21.133Z,78.26
2019-02-18T00:42:49.609Z,78.74
2019-02-18T00:45:18.018Z,78.79
2019-02-18T00:47:48.025Z,78.95
2019-02-18T00:50:16.816Z,79.17
2019-02-18T00:52:45.229Z,79.03
2019-02-18T00:55:13.622Z,79.12
2019-02-18T00:57:42.022Z,79.19
2019-02-18T01:00:16.081Z,79.52
2019-02-18T01:02:44.609Z,79.54
2019-02-18T01:05:13.207Z,79.55
2019-02-18T01:07:41.763Z,79.41
2019-02-18T01:10:12.206Z,79.94
2019-02-18T01:12:40.681Z,80.06
2019-02-18T01:15:14.130Z,79.96
2019-02-18T01:17:42.591Z,80.10
2019-02-18T01:20:13.799Z,80.15
2019-02-18T01:22:42.204Z,79.86
2019-02-18T01:25:12.664Z,79.97
2019-02-18T01:27:41.131Z,80.28
2019-02-18T01:30:12.525Z,80.24
2019-02-18T01:32:40.912Z,80.25
2019-02-18T01:35:09.341Z,80.73
2019-02-18T01:37:45.346Z,80.91
2019-02-18T01:40:10.788Z,81.40
2019-02-18T01:42:39.250Z,81.33
2019-02-18T01:45:10.440Z,81.45
2019-02-18T01:47:38.828Z,80.93
2019-02-18T01:50:10.254Z,81.07
2019-02-18T01:52:38.747Z,81.23
2019-02-18T01:55:08.270Z,81.33
2019-02-18T01:57:36.686Z,81.61
2019-02-18T02:00:08.349Z,81.52
2019-02-18T02:02:36.751Z,81.41
2019-02-18T02:05:06.154Z,81.49
2019-02-18T02:07:34.652Z,81.35
2019-02-18T02:10:03.220Z,81.84
2019-02-18T02:12:31.612Z,81.73
2019-02-18T02:15:00.027Z,81.82
2019-02-18T02:17:28.414Z,81.97
2019-02-18T02:19:56.892Z,81.61
2019-02-18T02:22:25.306Z,81.71
2019-02-18T02:24:53.775Z,81.93
2019-02-18T02:27:22.360Z,81.95
2019-02-18T02:29:50.797Z,82.44
2019-02-18T02:32:19.201Z,82.50
2019-02-18T02:34:47.590Z,82.57
2019-02-18T02:37:16.003Z,82.17
2019-02-18T02:39:44.452Z,82.19
2019-02-18T02:42:12.858Z,82.62
2019-02-18T02:44:41.271Z,82.52
2019-02-18T02:47:09.691Z,82.84
2019-02-18T02:49:38.101Z,82.71
2019-02-18T02:52:06.482Z,82.70
2019-02-18T02:54:34.887Z,83.10
2019-02-18T02:57:03.273Z,83.58
2019-02-18T02:59:31.681Z,83.70
2019-02-18T03:02:00.083Z,83.41
2019-02-18T03:04:28.527Z,83.26
2019-02-18T03:06:56.915Z,83.83
2019-02-18T03:09:25.321Z,83.30
2019-02-18T03:11:53.720Z,83.66
2019-02-18T03:14:22.133Z,83.54
2019-02-18T03:16:50.544Z,83.47
2019-02-18T03:19:18.982Z,83.62
2019-02-18T03:21:47.358Z,83.10
2019-02-18T03:24:15.824Z,83.59
2019-02-18T03:26:44.227Z,84.12
2019-02-18T03:29:30.553Z,84.52
2019-02-18T03:31:58.950Z,84.14
2019-02-18T03:34:30.391Z,83.95
2019-02-18T03:36:58.789Z,83.24
2019-02-18T03:39:27.203Z,83.52
2019-02-18T03:41:55.778Z,84.61
2019-02-18T03:44:24.193Z,84.10
2019-02-18T03:46:52.620Z,84.56
2019-02-18T03:49:21.017Z,83.70
2019-02-18T03:51:49.506Z,84.54
2019-02-18T03:54:17.959Z,84.02
2019-02-18T03:56:46.373Z,83.96
2019-02-18T03:59:14.775Z,84.25
2019-02-18T04:01:43.181Z,84.24
2019-02-18T04:04:11.707Z,84.35
2019-02-18T04:06:40.125Z,84.61
2019-02-18T04:09:08.520Z,84.99
2019-02-18T04:11:37.021Z,85.16
2019-02-18T04:14:05.457Z,84.74
2019-02-18T04:16:33.833Z,84.50
2019-02-18T04:19:02.236Z,84.90
2019-02-18T04:21:30.639Z,85.28
2019-02-18T04:23:59.064Z,85.56
2019-02-18T04:26:27.465Z,85.52
2019-02-18T04:28:55.936Z,85.48
2019-02-18T04:31:24.333Z,85.95
2019-02-18T04:33:52.749Z,84.89
2019-02-18T04:36:21.166Z,85.56
2019-02-18T04:38:54.209Z,85.61
2019-02-18T04:41:19.717Z,84.92
2019-02-18T04:43:48.111Z,85.05
2019-02-18T04:46:16.565Z,85.82
2019-02-18T04:48:44.977Z,85.47
2019-02-18T04:51:13.367Z,86.20
2019-02-18T04:53:41.776Z,86.21
2019-02-18T04:56:10.214Z,86.14
2019-02-18T04:58:38.609Z,86.03
2019-02-18T05:01:07.001Z,85.30
2019-02-18T05:03:35.414Z,85.69
2019-02-18T05:06:03.861Z,85.43
2019-02-18T05:08:32.274Z,85.19
2019-02-18T05:11:00.697Z,85.78
2019-02-18T05:13:29.135Z,85.83
2019-02-18T05:15:57.591Z,85.70
2019-02-18T05:18:25.991Z,86.03
2019-02-18T05:20:54.406Z,86.49
2019-02-18T05:23:22.820Z,86.82
2019-02-18T05:25:51.224Z,86.39
2019-02-18T05:28:19.648Z,86.51
2019-02-18T05:30:48.057Z,86.67
2019-02-18T05:33:16.462Z,86.96
2019-02-18T05:35:44.880Z,86.95
2019-02-18T05:38:13.266Z,86.51
2019-02-18T05:40:41.678Z,86.65
2019-02-18T05:43:10.157Z,86.43
2019-02-18T05:45:38.568Z,86.69
2019-02-18T05:48:06.975Z,86.29
2019-02-18T05:50:35.379Z,86.70
2019-02-18T05:53:03.820Z,86.47
2019-02-18T05:55:32.218Z,86.40
2019-02-18T05:58:00.611Z,86.75
2019-02-18T06:00:29.040Z,86.32
2019-02-18T06:02:57.460Z,86.51
2019-02-18T06:05:25.876Z,86.69
2019-02-18T06:07:54.313Z,85.99
2019-02-18T06:10:22.787Z,86.06
2019-02-18T06:12:51.218Z,85.83
2019-02-18T06:15:19.645Z,84.86
2019-02-18T06:17:48.071Z,84.81
2019-02-18T06:20:16.462Z,84.54
2019-02-18T06:22:44.885Z,85.12
2019-02-18T06:25:13.331Z,86.04
2019-02-18T06:27:41.780Z,85.89
2019-02-18T06:30:11.231Z,86.18
2019-02-18T06:32:39.635Z,86.14
2019-02-18T06:35:08.507Z,85.53
2019-02-18T06:37:36.893Z,85.65
2019-02-18T06:40:07.953Z,85.60
2019-02-18T06:42:36.352Z,85.83
2019-02-18T06:45:24.817Z,86.43
2019-02-18T06:47:53.227Z,86.58
2019-02-18T06:50:21.628Z,86.51
2019-02-18T06:52:50.036Z,86.23
2019-02-18T06:55:18.433Z,86.07
2019-02-18T06:58:04.669Z,85.96
2019-02-18T07:00:34.712Z,86.00
2019-02-18T07:03:13.945Z,85.65
2019-02-18T07:05:44.051Z,85.62
2019-02-18T07:08:14.139Z,85.41
2019-02-18T07:10:47.291Z,85.61
2019-02-18T07:13:15.737Z,85.57
2019-02-18T07:15:44.123Z,85.24
2019-02-18T07:18:12.547Z,85.66
2019-02-18T07:20:40.962Z,85.98
2019-02-18T07:23:09.356Z,85.65
2019-02-18T07:25:37.778Z,85.78
2019-02-18T07:28:06.190Z,85.08
2019-02-18T07:30:34.612Z,84.73
2019-02-18T07:33:03.019Z,84.23
2019-02-18T07:35:31.491Z,84.30
2019-02-18T07:37:59.900Z,84.13
2019-02-18T07:40:28.303Z,83.80
2019-02-18T07:42:56.722Z,83.50
2019-02-18T07:45:25.127Z,83.23
2019-02-18T07:47:53.559Z,82.52
2019-02-18T07:50:21.957Z,82.10
2019-02-18T07:52:50.373Z,82.37
2019-02-18T07:55:18.774Z,81.30
2019-02-18T07:57:47.164Z,81.70
2019-02-18T08:00:15.617Z,81.44
2019-02-18T08:02:44.096Z,81.70
2019-02-18T08:05:12.650Z,81.23
2019-02-18T08:07:41.049Z,81.12
2019-02-18T08:10:12.320Z,80.60
2019-02-18T08:12:41.163Z,80.24
2019-02-18T08:15:10.607Z,80.03
2019-02-18T08:17:39.001Z,80.04
2019-02-18T08:20:11.611Z,79.40
2019-02-18T08:22:40.029Z,79.50
2019-02-18T08:25:13.435Z,79.03
2019-02-18T08:27:41.836Z,79.02
2019-02-18T08:30:14.601Z,77.41
2019-02-18T08:32:43.116Z,76.56
2019-02-18T08:35:11.588Z,76.62
2019-02-18T08:37:39.989Z,76.05
2019-02-18T08:40:09.536Z,75.50
2019-02-18T08:42:38.015Z,75.47
2019-02-18T08:45:13.985Z,75.63
2019-02-18T08:47:42.371Z,75.25
2019-02-18T08:50:12.217Z,75.07
2019-02-18T08:52:40.635Z,74.44
2019-02-18T08:55:11.620Z,73.98
2019-02-18T08:57:40.041Z,73.99
2019-02-18T09:00:16.901Z,73.59
2019-02-18T09:02:45.310Z,72.80
2019-02-18T09:05:13.840Z,72.52
2019-02-18T09:07:42.353Z,71.58
2019-02-18T09:10:13.201Z,71.06
2019-02-18T09:12:41.611Z,70.79
2019-02-18T09:15:11.286Z,70.42
2019-02-18T09:17:39.712Z,70.10
2019-02-18T09:20:09.650Z,68.86
2019-02-18T09:22:42.562Z,69.31
2019-02-18T09:25:28.730Z,68.71
2019-02-18T09:27:57.141Z,68.66
2019-02-18T09:30:27.204Z,69.73
2019-02-18T09:32:55.610Z,69.80
2019-02-18T09:35:24.043Z,69.70
2019-02-18T09:37:52.485Z,69.82
2019-02-18T09:40:20.950Z,69.53
2019-02-18T09:42:49.424Z,68.98
2019-02-18T09:45:18.000Z,69.46
2019-02-18T09:47:46.582Z,68.93
2019-02-18T09:50:15.100Z,69.51
2019-02-18T09:52:43.524Z,69.35
2019-02-18T09:55:12.013Z,69.25
2019-02-18T09:57:40.456Z,68.94
2019-02-18T10:00:10.996Z,67.70
2019-02-18T10:02:39.399Z,67.38
2019-02-18T10:05:08.756Z,66.80
2019-02-18T10:07:37.288Z,65.78
2019-02-18T10:10:08.045Z,65.56
2019-02-18T10:12:36.444Z,65.02
2019-02-18T10:15:07.798Z,64.91
2019-02-18T10:17:36.209Z,63.37
2019-02-18T10:20:10.252Z,63.82
2019-02-18T10:22:38.813Z,63.90
2019-02-18T10:25:10.625Z,63.74
2019-02-18T10:27:39.102Z,63.61
2019-02-18T10:30:09.460Z,64.22
2019-02-18T10:32:37.939Z,63.52
2019-02-18T10:35:11.329Z,63.55
2019-02-18T10:37:39.735Z,63.14
2019-02-18T10:40:09.876Z,63.02
2019-02-18T10:42:38.302Z,61.88
2019-02-18T10:45:09.960Z,62.55
2019-02-18T10:47:38.375Z,63.24
2019-02-18T10:50:09.382Z,62.64
2019-02-18T10:52:37.782Z,62.70
2019-02-18T10:55:10.217Z,62.55
2019-02-18T10:57:38.952Z,62.64
2019-02-18T11:00:13.441Z,63.36
2019-02-18T11:02:41.826Z,64.16
2019-02-18T11:05:10.313Z,63.68
2019-02-18T11:07:38.815Z,64.10
2019-02-18T11:10:10.424Z,63.89
2019-02-18T11:12:38.848Z,62.49
2019-02-18T11:15:09.813Z,62.12
2019-02-18T11:17:39.196Z,61.53
2019-02-18T11:20:10.173Z,61.35
2019-02-18T11:22:38.569Z,60.75
2019-02-18T11:25:14.869Z,59.46
2019-02-18T11:27:43.268Z,58.36
2019-02-18T11:30:16.447Z,59.04
2019-02-18T11:32:44.936Z,59.24
2019-02-18T11:35:13.582Z,59.76
2019-02-18T11:37:41.998Z,59.31
2019-02-18T11:40:16.397Z,58.95
2019-02-18T11:42:44.895Z,59.39
2019-02-18T11:45:14.871Z,59.59
2019-02-18T11:47:43.341Z,59.34
2019-02-18T11:50:14.325Z,59.96
2019-02-18T11:52:42.807Z,59.65
2019-02-18T11:55:12.663Z,59.16
2019-02-18T11:57:41.414Z,59.54
2019-02-18T12:00:17.139Z,59.36
2019-02-18T12:02:45.612Z,59.05
2019-02-18T12:05:14.182Z,59.69
2019-02-18T12:07:42.642Z,59.84
2019-02-18T12:10:14.661Z,59.70
2019-02-18T12:12:43.230Z,60.24
2019-02-18T12:15:13.997Z,58.20
2019-02-18T12:17:42.417Z,59.20
2019-02-18T12:20:13.581Z,59.46
2019-02-18T12:22:42.139Z,58.53
2019-02-18T12:25:11.497Z,58.34
2019-02-18T12:27:40.191Z,58.82
2019-02-18T12:30:11.780Z,60.31
2019-02-18T12:32:40.252Z,59.13
2019-02-18T12:35:09.038Z,59.37
2019-02-18T12:37:37.435Z,58.75
2019-02-18T12:40:08.800Z,58.84
2019-02-18T12:42:37.558Z,58.08
2019-02-18T12:45:09.009Z,57.09
2019-02-18T12:47:37.494Z,57.45
2019-02-18T12:50:07.464Z,56.86
2019-02-18T12:52:35.940Z,55.89
2019-02-18T12:55:06.015Z,55.66
2019-02-18T12:57:34.863Z,56.57
2019-02-18T13:00:03.998Z,57.78
2019-02-18T13:02:32.420Z,58.12
2019-02-18T13:05:00.865Z,56.53
2019-02-18T13:07:29.352Z,56.25
2019-02-18T13:09:57.861Z,57.23
2019-02-18T13:12:26.288Z,54.90
2019-02-18T13:14:54.760Z,55.19
2019-02-18T13:17:23.537Z,53.96
2019-02-18T13:19:51.987Z,55.03
2019-02-18T13:22:20.462Z,55.10
2019-02-18T13:24:48.876Z,54.82
2019-02-18T13:27:17.311Z,53.95
2019-02-18T13:29:45.737Z,50.55
2019-02-18T13:32:14.135Z,47.78
2019-02-18T13:34:42.840Z,47.35
2019-02-18T13:37:12.837Z,46.63
2019-02-18T13:39:41.251Z,46.07
2019-02-18T13:42:09.663Z,42.34
2019-02-18T13:44:38.125Z,42.59
2019-02-18T13:47:06.602Z,41.50
2019-02-18T13:49:35.293Z,42.48
2019-02-18T13:52:03.882Z,41.03
2019-02-18T13:54:32.311Z,43.45
2019-02-18T13:57:00.720Z,43.01
2019-02-18T13:59:29.141Z,40.98
2019-02-18T14:01:57.576Z,40.67
2019-02-18T14:04:25.996Z,39.64
2019-02-18T14:06:54.962Z,40.42
2019-02-18T14:09:23.432Z,40.18
2019-02-18T14:11:51.922Z,39.31
2019-02-18T14:14:20.328Z,39.69
2019-02-18T14:16:48.802Z,38.90
2019-02-18T14:19:17.231Z,39.89
2019-02-18T14:21:45.980Z,41.55
2019-02-18T14:24:14.401Z,42.15
2019-02-18T14:26:42.878Z,41.07
2019-02-18T14:29:11.312Z,41.77
2019-02-18T14:31:39.713Z,41.33
2019-02-18T14:34:08.130Z,41.97
2019-02-18T14:36:36.606Z,40.66
2019-02-18T14:39:08.998Z,43.70
2019-02-18T14:41:37.431Z,42.49
2019-02-18T14:44:06.167Z,43.16
2019-02-18T14:46:36.236Z,42.44
2019-02-18T14:49:04.708Z,42.96
2019-02-18T14:51:33.169Z,44.82
2019-02-18T14:54:01.602Z,44.82
2019-02-18T14:56:30.148Z,44.10
2019-02-18T14:58:58.647Z,44.00
2019-02-18T15:01:27.056Z,45.37
2019-02-18T15:03:55.471Z,44.35
2019-02-18T15:06:23.898Z,44.54
2019-02-18T15:08:52.575Z,45.29
2019-02-18T15:11:21.123Z,45.65
2019-02-18T15:13:49.556Z,45.88
2019-02-18T15:16:17.971Z,47.19
2019-02-18T15:18:46.461Z,48.12
2019-02-18T15:21:14.943Z,48.36
2019-02-18T15:23:43.416Z,48.27
2019-02-18T15:26:11.940Z,47.74
2019-02-18T15:28:40.404Z,46.64
2019-02-18T15:31:08.810Z,47.87
2019-02-18T15:33:37.262Z,47.39
2019-02-18T15:36:05.740Z,47.74
2019-02-18T15:38:34.188Z,48.03
2019-02-18T15:41:02.784Z,48.58
2019-02-18T15:43:32.920Z,49.92
2019-02-18T15:46:01.535Z,49.69
2019-02-18T15:48:31.206Z,49.74
2019-02-18T15:50:59.621Z,49.75
2019-02-18T15:53:28.033Z,48.17
2019-02-18T15:55:56.740Z,48.04
2019-02-18T15:58:25.125Z,48.49
2019-02-18T16:00:53.688Z,47.96
2019-02-18T16:03:22.107Z,45.97
2019-02-18T16:05:50.542Z,43.25
2019-02-18T16:08:19.043Z,42.80
2019-02-18T16:10:47.886Z,43.72
2019-02-18T16:13:16.318Z,44.28
2019-02-18T16:15:44.733Z,45.08
2019-02-18T16:18:13.135Z,45.45
2019-02-18T16:20:42.404Z,44.71
2019-02-18T16:23:10.857Z,46.16
2019-02-18T16:25:39.287Z,47.17
2019-02-18T16:28:07.984Z,47.52
2019-02-18T16:30:36.430Z,47.39
2019-02-18T16:33:04.989Z,47.18
2019-02-18T16:35:33.736Z,48.23
2019-02-18T16:38:02.141Z,47.44
2019-02-18T16:40:30.728Z,48.22
2019-02-18T16:42:59.670Z,49.56
2019-02-18T16:45:28.110Z,49.93
2019-02-18T16:47:56.546Z,51.10
2019-02-18T16:50:24.964Z,50.20
2019-02-18T16:52:53.380Z,50.81
2019-02-18T16:55:21.791Z,51.57
2019-02-18T16:57:50.614Z,51.90
2019-02-18T17:00:21.027Z,51.27
2019-02-18T17:02:50.959Z,52.65
2019-02-18T17:05:19.626Z,52.79
2019-02-18T17:07:48.118Z,53.63
2019-02-18T17:10:16.537Z,53.69
2019-02-18T17:12:45.326Z,52.73
2019-02-18T17:15:13.970Z,53.08
2019-02-18T17:17:42.477Z,53.82
2019-02-18T17:20:11.056Z,52.90
2019-02-18T17:22:39.457Z,52.95
2019-02-18T17:25:10.360Z,53.64
2019-02-18T17:27:38.787Z,55.16
2019-02-18T17:30:15.731Z,53.82
2019-02-18T17:32:44.215Z,53.74
2019-02-18T17:35:13.998Z,54.72
2019-02-18T17:37:42.497Z,54.92
2019-02-18T17:40:12.559Z,54.43
2019-02-18T17:42:41.805Z,55.42
2019-02-18T17:45:15.240Z,55.06
2019-02-18T17:47:43.654Z,55.67
2019-02-18T17:50:16.000Z,55.26
2019-02-18T17:52:44.769Z,55.86
2019-02-18T17:55:15.429Z,55.88
2019-02-18T17:57:43.831Z,57.26
2019-02-18T18:00:18.069Z,57.35
2019-02-18T18:02:46.491Z,57.71
2019-02-18T18:05:15.857Z,57.64
2019-02-18T18:07:44.327Z,58.24
2019-02-18T18:10:13.596Z,59.40
2019-02-18T18:12:42.012Z,59.76
2019-02-18T18:15:15.659Z,59.15
2019-02-18T18:17:44.702Z,60.06
2019-02-18T18:20:14.142Z,59.90
2019-02-18T18:22:42.715Z,60.63
2019-02-18T18:25:12.956Z,60.31
2019-02-18T18:27:41.396Z,60.99
2019-02-18T18:30:15.834Z,60.27
2019-02-18T18:32:45.246Z,61.03
2019-02-18T18:35:13.956Z,61.03
2019-02-18T18:37:42.514Z,62.48
2019-02-18T18:40:17.041Z,63.31
2019-02-18T18:42:45.429Z,62.83
2019-02-18T18:45:15.795Z,61.86
2019-02-18T18:47:44.283Z,61.93
2019-02-18T18:50:15.282Z,64.00
2019-02-18T18:52:44.127Z,63.72
2019-02-18T18:55:12.686Z,65.36
2019-02-18T18:57:41.090Z,63.04
2019-02-18T19:00:23.060Z,63.94
2019-02-18T19:02:51.731Z,64.59
2019-02-18T19:05:20.689Z,64.61
2019-02-18T19:07:49.083Z,64.23
2019-02-18T19:10:17.627Z,65.22
2019-02-18T19:12:46.153Z,66.04
2019-02-18T19:15:15.775Z,65.35
2019-02-18T19:17:44.216Z,65.94
2019-02-18T19:20:13.248Z,65.13
2019-02-18T19:22:41.735Z,66.24
2019-02-18T19:25:12.314Z,65.55
2019-02-18T19:27:40.804Z,66.49
2019-02-18T19:30:24.000Z,66.76
2019-02-18T19:32:52.486Z,67.19
2019-02-18T19:35:20.887Z,67.34
2019-02-18T19:37:49.304Z,67.67
2019-02-18T19:40:17.882Z,68.12
2019-02-18T19:42:46.309Z,68.29
2019-02-18T19:45:17.282Z,68.96
2019-02-18T19:47:45.838Z,69.08
2019-02-18T19:50:14.288Z,69.13
2019-02-18T19:52:42.701Z,70.25
2019-02-18T19:55:12.577Z,71.12
2019-02-18T19:57:41.083Z,70.22
2019-02-18T20:00:12.561Z,69.77
2019-02-18T20:02:41.003Z,70.58
2019-02-18T20:05:10.343Z,71.13
2019-02-18T20:07:38.780Z,70.44
2019-02-18T20:10:09.824Z,70.72
2019-02-18T20:12:38.269Z,71.16
2019-02-18T20:15:10.325Z,72.68
2019-02-18T20:17:38.887Z,72.34
2019-02-18T20:20:12.710Z,72.31
2019-02-18T20:22:41.187Z,72.44
2019-02-18T20:25:10.075Z,71.86
2019-02-18T20:27:38.553Z,72.52
2019-02-18T20:30:12.344Z,72.29
2019-02-18T20:32:40.960Z,72.57
2019-02-18T20:35:10.750Z,72.78
2019-02-18T20:37:39.227Z,72.99
2019-02-18T20:40:09.973Z,74.18
2019-02-18T20:42:38.936Z,72.95
2019-02-18T20:45:10.393Z,72.85
2019-02-18T20:47:38.872Z,73.81
2019-02-18T20:50:09.917Z,73.59
2019-02-18T20:52:38.448Z,73.49
2019-02-18T20:55:09.522Z,73.53
2019-02-18T20:57:38.112Z,74.01
2019-02-18T21:00:11.321Z,74.65
2019-02-18T21:02:39.766Z,74.41
2019-02-18T21:05:08.313Z,74.67
2019-02-18T21:07:39.820Z,74.15
2019-02-18T21:10:13.775Z,74.55
2019-02-18T21:12:42.227Z,74.93
2019-02-18T21:15:11.262Z,75.49
2019-02-18T21:17:39.666Z,75.82
2019-02-18T21:20:12.489Z,76.79
2019-02-18T21:22:40.919Z,75.50
2019-02-18T21:25:10.678Z,77.17
2019-02-18T21:27:39.250Z,76.02
2019-02-18T21:30:12.877Z,75.80
2019-02-18T21:32:41.365Z,75.81
2019-02-18T21:35:09.926Z,76.16
2019-02-18T21:37:38.393Z,76.91
2019-02-18T21:40:09.479Z,76.34
2019-02-18T21:42:37.958Z,76.96
2019-02-18T21:45:09.750Z,77.12
2019-02-18T21:47:38.161Z,76.77
2019-02-18T21:50:08.638Z,77.32
2019-02-18T21:52:37.502Z,77.29
2019-02-18T21:55:08.352Z,77.47
2019-02-18T21:57:36.828Z,77.61
2019-02-18T22:00:22.755Z,78.59
2019-02-18T22:02:51.347Z,78.43
2019-02-18T22:05:20.006Z,77.88
2019-02-18T22:07:48.508Z,77.48
2019-02-18T22:10:16.963Z,78.07
2019-02-18T22:12:45.359Z,78.37
2019-02-18T22:15:14.919Z,78.70
2019-02-18T22:17:43.394Z,79.43
2019-02-18T22:20:13.647Z,79.99
2019-02-18T22:22:42.216Z,78.78
2019-02-18T22:25:11.880Z,79.09
2019-02-18T22:27:40.347Z,78.69
2019-02-18T22:30:15.814Z,78.99
2019-02-18T22:32:44.223Z,78.87
2019-02-18T22:35:13.159Z,78.30
2019-02-18T22:37:41.674Z,78.91
2019-02-18T22:40:29.432Z,79.62
2019-02-18T22:42:57.937Z,79.66
2019-02-18T22:45:26.361Z,79.11
2019-02-18T22:47:55.159Z,79.42
2019-02-18T22:50:23.573Z,79.19
2019-02-18T22:52:51.979Z,79.59
2019-02-18T22:55:20.382Z,80.04
2019-02-18T22:57:48.800Z,79.62
2019-02-18T23:00:30.722Z,80.07
2019-02-18T23:02:59.327Z,79.87
2019-02-18T23:05:27.744Z,80.35
2019-02-18T23:07:56.151Z,79.54
2019-02-18T23:10:24.579Z,79.74
2019-02-18T23:12:53.016Z,80.67
2019-02-18T23:15:21.414Z,79.94
2019-02-18T23:17:49.812Z,79.88
2019-02-18T23:20:18.229Z,80.60
2019-02-18T23:22:46.703Z,80.92
2019-02-18T23:25:15.129Z,80.50
2019-02-18T23:27:43.789Z,81.13
2019-02-18T23:30:12.367Z,80.75
2019-02-18T23:32:40.786Z,81.14
2019-02-18T23:35:09.433Z,80.83
2019-02-18T23:37:37.849Z,80.95
2019-02-18T23:40:06.599Z,81.19
2019-02-18T23:42:35.026Z,81.51
2019-02-18T23:45:03.569Z,81.77
2019-02-18T23:47:31.999Z,81.85
2019-02-18T23:50:00.473Z,81.46
2019-02-18T23:52:28.860Z,81.65
2019-02-18T23:54:57.293Z,81.70
2019-02-18T23:57:25.681Z,82.20
2019-02-18T23:59:54.113Z,82.24
